createdAt,value
2023-11-30T00:01:59.949Z,76.28
2023-11-30T00:04:02.755Z,76.44
2023-11-30T00:06:05.876Z,76.58
2023-11-30T00:08:08.699Z,77.32
2023-11-30T00:10:11.470Z,77.34
2023-11-30T00:12:14.487Z,76.95
2023-11-30T00:14:17.254Z,76.83
2023-11-30T00:16:20.008Z,77.21
2023-11-30T00:18:22.849Z,76.95
2023-11-30T00:20:25.632Z,77.22
2023-11-30T00:22:28.363Z,77.59
2023-11-30T00:24:31.119Z,77.65
2023-11-30T00:26:33.862Z,77.75
2023-11-30T00:28:36.675Z,77.43
2023-11-30T00:30:39.605Z,77.09
2023-11-30T00:32:42.602Z,76.95
2023-11-30T00:34:45.379Z,76.99
2023-11-30T00:36:48.532Z,77.45
2023-11-30T00:38:51.323Z,77.15
2023-11-30T00:40:54.498Z,76.73
2023-11-30T00:42:57.463Z,76.74
2023-11-30T00:45:00.420Z,76.72
2023-11-30T00:47:03.238Z,76.32
2023-11-30T00:49:06.014Z,76.74
2023-11-30T00:51:12.225Z,76.29
2023-11-30T00:53:14.976Z,76.67
2023-11-30T00:55:17.707Z,76.40
2023-11-30T00:57:20.506Z,75.91
2023-11-30T00:59:23.344Z,76.35
2023-11-30T01:01:26.832Z,75.76
2023-11-30T01:03:29.724Z,76.01
2023-11-30T01:05:32.557Z,75.56
2023-11-30T01:07:37.244Z,75.45
2023-11-30T01:09:40.008Z,75.90
2023-11-30T01:11:45.492Z,75.77
2023-11-30T01:13:48.265Z,75.75
2023-11-30T01:15:51.055Z,75.61
2023-11-30T01:17:53.963Z,75.59
2023-11-30T01:19:57.034Z,75.49
2023-11-30T01:21:59.771Z,75.48
2023-11-30T01:24:02.526Z,75.57
2023-11-30T01:26:05.523Z,75.64
2023-11-30T01:28:08.326Z,75.44
2023-11-30T01:30:11.775Z,75.72
2023-11-30T01:32:14.538Z,75.31
2023-11-30T01:34:17.303Z,75.47
2023-11-30T01:36:21.158Z,75.25
2023-11-30T01:38:25.099Z,75.49
2023-11-30T01:40:28.105Z,75.46
2023-11-30T01:42:30.887Z,75.14
2023-11-30T01:44:33.641Z,75.83
2023-11-30T01:46:38.567Z,75.19
2023-11-30T01:48:45.265Z,75.56
2023-11-30T01:50:48.892Z,75.22
2023-11-30T01:52:51.794Z,75.44
2023-11-30T01:54:54.546Z,75.16
2023-11-30T01:56:57.951Z,75.42
2023-11-30T01:59:00.714Z,75.76
2023-11-30T02:01:05.001Z,75.88
2023-11-30T02:03:08.314Z,75.93
2023-11-30T02:05:11.703Z,75.92
2023-11-30T02:07:14.454Z,75.71
2023-11-30T02:09:17.317Z,75.58
2023-11-30T02:11:20.417Z,75.31
2023-11-30T02:13:25.705Z,75.60
2023-11-30T02:15:28.550Z,76.07
2023-11-30T02:17:31.529Z,75.66
2023-11-30T02:19:34.380Z,75.97
2023-11-30T02:21:37.107Z,75.79
2023-11-30T02:23:39.834Z,75.77
2023-11-30T02:25:43.734Z,76.26
2023-11-30T02:27:46.468Z,75.89
2023-11-30T02:29:49.254Z,75.79
2023-11-30T02:31:52.840Z,75.54
2023-11-30T02:33:56.506Z,74.10
2023-11-30T02:35:59.274Z,73.82
2023-11-30T02:38:02.148Z,73.77
2023-11-30T02:40:05.559Z,73.54
2023-11-30T02:42:08.325Z,73.24
2023-11-30T02:44:11.095Z,72.46
2023-11-30T02:46:14.578Z,72.04
2023-11-30T02:48:17.422Z,72.51
2023-11-30T02:50:20.253Z,72.53
2023-11-30T02:52:23.081Z,72.49
2023-11-30T02:54:25.857Z,71.95
2023-11-30T02:56:28.601Z,72.30
2023-11-30T02:58:31.317Z,71.44
2023-11-30T03:00:34.079Z,71.44
2023-11-30T03:02:37.086Z,71.67
2023-11-30T03:04:39.844Z,71.58
2023-11-30T03:06:43.192Z,71.65
2023-11-30T03:08:48.015Z,72.26
2023-11-30T03:10:52.144Z,72.15
2023-11-30T03:12:55.701Z,71.97
2023-11-30T03:14:58.470Z,72.22
2023-11-30T03:17:01.233Z,72.41
2023-11-30T03:19:14.337Z,72.54
2023-11-30T03:21:21.057Z,72.47
2023-11-30T03:23:23.806Z,72.34
2023-11-30T03:25:26.544Z,72.05
2023-11-30T03:27:29.330Z,72.08
2023-11-30T03:29:32.134Z,72.06
2023-11-30T03:31:36.931Z,71.87
2023-11-30T03:33:40.417Z,71.62
2023-11-30T03:35:43.876Z,71.71
2023-11-30T03:37:46.633Z,71.56
2023-11-30T03:39:49.455Z,71.58
2023-11-30T03:41:52.413Z,71.63
2023-11-30T03:43:55.227Z,71.14
2023-11-30T03:45:57.994Z,72.07
2023-11-30T03:48:01.441Z,71.71
2023-11-30T03:50:04.371Z,71.90
2023-11-30T03:52:07.111Z,72.13
2023-11-30T03:54:09.846Z,72.47
2023-11-30T03:56:12.668Z,73.10
2023-11-30T03:58:15.418Z,72.70
2023-11-30T04:00:18.564Z,73.43
2023-11-30T04:02:22.063Z,73.59
2023-11-30T04:04:24.962Z,73.74
2023-11-30T04:06:27.948Z,73.81
2023-11-30T04:08:30.763Z,73.55
2023-11-30T04:10:33.500Z,73.82
2023-11-30T04:12:36.235Z,73.34
2023-11-30T04:14:38.966Z,73.73
2023-11-30T04:16:41.782Z,73.56
2023-11-30T04:18:45.463Z,73.97
2023-11-30T04:20:48.273Z,73.65
2023-11-30T04:22:51.092Z,73.81
2023-11-30T04:24:53.835Z,73.70
2023-11-30T04:26:56.641Z,73.82
2023-11-30T04:28:59.481Z,73.96
2023-11-30T04:31:02.327Z,73.96
2023-11-30T04:33:05.311Z,73.86
2023-11-30T04:35:08.834Z,74.08
2023-11-30T04:37:11.630Z,74.64
2023-11-30T04:39:14.515Z,74.70
2023-11-30T04:41:17.453Z,74.35
2023-11-30T04:43:20.305Z,74.45
2023-11-30T04:45:29.373Z,74.22
2023-11-30T04:47:32.966Z,74.00
2023-11-30T04:49:35.852Z,74.21
2023-11-30T04:51:38.622Z,74.25
2023-11-30T04:53:41.601Z,73.43
2023-11-30T04:55:44.354Z,73.62
2023-11-30T04:57:47.107Z,74.12
2023-11-30T04:59:49.861Z,74.19
2023-11-30T05:01:53.127Z,73.83
2023-11-30T05:03:58.317Z,74.17
2023-11-30T05:06:01.341Z,74.01
2023-11-30T05:08:04.317Z,73.84
2023-11-30T05:10:07.484Z,73.61
2023-11-30T05:12:10.293Z,73.86
2023-11-30T05:14:13.085Z,73.42
2023-11-30T05:16:16.066Z,73.40
2023-11-30T05:18:19.442Z,73.31
2023-11-30T05:20:22.220Z,73.22
2023-11-30T05:22:24.979Z,72.99
2023-11-30T05:24:27.737Z,72.66
2023-11-30T05:26:30.496Z,71.80
2023-11-30T05:28:33.567Z,70.94
2023-11-30T05:30:36.382Z,70.79
2023-11-30T05:32:39.142Z,70.39
2023-11-30T05:34:41.992Z,71.11
2023-11-30T05:36:44.753Z,71.01
2023-11-30T05:38:47.544Z,70.73
2023-11-30T05:40:50.453Z,70.40
2023-11-30T05:42:53.181Z,70.22
2023-11-30T05:44:55.978Z,70.41
2023-11-30T05:46:58.850Z,70.33
2023-11-30T05:49:01.699Z,70.31
2023-11-30T05:51:04.834Z,71.06
2023-11-30T05:53:07.575Z,70.53
2023-11-30T05:55:11.761Z,70.42
2023-11-30T05:57:14.547Z,70.30
2023-11-30T05:59:17.267Z,70.10
2023-11-30T06:01:20.242Z,70.20
2023-11-30T06:03:23.117Z,70.41
2023-11-30T06:05:26.066Z,70.61
2023-11-30T06:07:28.976Z,70.77
2023-11-30T06:09:31.789Z,71.26
2023-11-30T06:11:34.859Z,71.06
2023-11-30T06:13:37.616Z,70.72
2023-11-30T06:15:40.453Z,70.89
2023-11-30T06:17:43.241Z,69.76
2023-11-30T06:19:46.427Z,70.10
2023-11-30T06:21:49.178Z,70.34
2023-11-30T06:23:51.974Z,70.17
2023-11-30T06:25:57.643Z,70.14
2023-11-30T06:28:00.405Z,70.68
2023-11-30T06:30:04.010Z,70.59
2023-11-30T06:32:06.773Z,70.60
2023-11-30T06:34:09.518Z,70.77
2023-11-30T06:36:12.570Z,70.87
2023-11-30T06:38:15.318Z,70.63
2023-11-30T06:40:18.563Z,70.68
2023-11-30T06:42:21.312Z,71.08
2023-11-30T06:44:24.129Z,70.78
2023-11-30T06:46:26.976Z,69.86
2023-11-30T06:48:29.773Z,70.41
2023-11-30T06:50:33.701Z,71.47
2023-11-30T06:52:36.430Z,71.15
2023-11-30T06:54:39.348Z,71.83
2023-11-30T06:56:42.743Z,71.99
2023-11-30T06:58:45.565Z,72.48
2023-11-30T07:00:48.378Z,72.96
2023-11-30T07:02:51.159Z,72.57
2023-11-30T07:04:53.992Z,72.90
2023-11-30T07:06:56.808Z,72.52
2023-11-30T07:08:59.618Z,73.15
2023-11-30T07:11:02.353Z,73.98
2023-11-30T07:13:05.099Z,74.50
2023-11-30T07:15:08.739Z,75.42
2023-11-30T07:17:11.569Z,75.75
2023-11-30T07:19:14.842Z,76.69
2023-11-30T07:21:17.632Z,77.03
2023-11-30T07:23:20.417Z,78.24
2023-11-30T07:25:23.911Z,78.25
2023-11-30T07:27:27.620Z,78.50
2023-11-30T07:29:34.532Z,78.34
2023-11-30T07:31:37.394Z,78.63
2023-11-30T07:33:40.188Z,78.16
2023-11-30T07:35:44.018Z,79.08
2023-11-30T07:37:46.812Z,79.94
2023-11-30T07:39:49.610Z,80.65
2023-11-30T07:41:52.402Z,80.21
2023-11-30T07:43:55.133Z,80.39
2023-11-30T07:45:58.029Z,81.15
2023-11-30T07:48:01.066Z,81.22
2023-11-30T07:50:04.071Z,81.65
2023-11-30T07:52:06.966Z,81.75
2023-11-30T07:54:09.758Z,82.29
2023-11-30T07:56:12.526Z,82.70
2023-11-30T07:58:15.276Z,82.83
2023-11-30T08:00:18.532Z,82.33
2023-11-30T08:02:21.331Z,82.68
2023-11-30T08:04:24.442Z,82.96
2023-11-30T08:06:27.264Z,83.00
2023-11-30T08:08:30.022Z,83.33
2023-11-30T08:10:40.865Z,83.06
2023-11-30T08:12:43.606Z,83.57
2023-11-30T08:14:46.388Z,83.11
2023-11-30T08:16:49.139Z,82.71
2023-11-30T08:18:51.963Z,83.51
2023-11-30T08:20:55.577Z,83.16
2023-11-30T08:22:58.323Z,82.82
2023-11-30T08:25:01.325Z,82.25
2023-11-30T08:27:04.772Z,82.35
2023-11-30T08:29:07.562Z,81.88
2023-11-30T08:31:10.378Z,82.35
2023-11-30T08:33:13.306Z,82.98
2023-11-30T08:35:16.157Z,83.57
2023-11-30T08:37:19.634Z,84.05
2023-11-30T08:39:25.334Z,83.83
2023-11-30T08:41:28.257Z,84.32
2023-11-30T08:43:31.214Z,84.43
2023-11-30T08:45:34.032Z,84.94
2023-11-30T08:47:37.126Z,84.13
2023-11-30T08:49:39.940Z,83.81
2023-11-30T08:51:46.002Z,84.75
2023-11-30T08:53:49.030Z,84.90
2023-11-30T08:55:51.791Z,84.89
2023-11-30T08:57:55.403Z,84.83
2023-11-30T08:59:58.184Z,84.33
2023-11-30T09:02:00.986Z,84.30
2023-11-30T09:04:07.305Z,84.10
2023-11-30T09:06:10.542Z,83.71
2023-11-30T09:08:13.333Z,83.49
2023-11-30T09:10:16.948Z,83.38
2023-11-30T09:12:19.763Z,83.74
2023-11-30T09:14:22.583Z,84.02
2023-11-30T09:16:26.746Z,84.64
2023-11-30T09:18:29.629Z,84.62
2023-11-30T09:20:32.381Z,84.17
2023-11-30T09:22:38.790Z,84.29
2023-11-30T09:24:41.779Z,84.37
2023-11-30T09:26:46.391Z,85.04
2023-11-30T09:28:50.161Z,84.67
2023-11-30T09:30:53.066Z,84.26
2023-11-30T09:32:56.061Z,84.27
2023-11-30T09:34:58.838Z,83.97
2023-11-30T09:37:01.675Z,84.18
2023-11-30T09:39:04.432Z,84.71
2023-11-30T09:41:08.003Z,84.49
2023-11-30T09:43:11.136Z,84.23
2023-11-30T09:45:15.821Z,85.00
2023-11-30T09:47:18.970Z,84.58
2023-11-30T09:49:21.774Z,84.82
2023-11-30T09:51:27.025Z,84.28
2023-11-30T09:53:30.181Z,84.35
2023-11-30T09:55:32.986Z,83.80
2023-11-30T09:57:35.888Z,84.23
2023-11-30T09:59:39.032Z,83.86
2023-11-30T10:01:42.067Z,84.27
2023-11-30T10:03:45.146Z,84.19
2023-11-30T10:05:48.300Z,84.50
2023-11-30T10:07:51.492Z,83.95
2023-11-30T10:09:54.329Z,84.29
2023-11-30T10:11:57.882Z,84.43
2023-11-30T10:14:01.045Z,84.39
2023-11-30T10:16:07.068Z,84.08
2023-11-30T10:18:11.927Z,84.69
2023-11-30T10:20:15.422Z,84.31
2023-11-30T10:22:18.274Z,84.38
2023-11-30T10:24:21.185Z,83.98
2023-11-30T10:26:25.871Z,84.69
2023-11-30T10:28:29.026Z,84.90
2023-11-30T10:30:33.614Z,84.31
2023-11-30T10:32:41.013Z,84.34
2023-11-30T10:34:53.700Z,84.52
2023-11-30T10:37:01.190Z,84.37
2023-11-30T10:39:17.809Z,85.00
2023-11-30T10:41:28.032Z,85.05
2023-11-30T10:43:33.800Z,85.49
2023-11-30T10:45:40.737Z,85.47
2023-11-30T10:47:44.316Z,85.96
2023-11-30T10:49:50.142Z,85.90
2023-11-30T10:51:56.656Z,86.13
2023-11-30T10:54:09.463Z,85.89
2023-11-30T10:56:14.974Z,85.45
2023-11-30T10:58:25.180Z,85.66
2023-11-30T11:00:35.144Z,85.72
2023-11-30T11:02:46.216Z,86.00
2023-11-30T11:04:48.966Z,85.37
2023-11-30T11:07:02.019Z,85.48
2023-11-30T11:09:08.942Z,85.60
2023-11-30T11:11:12.117Z,86.25
2023-11-30T11:13:27.477Z,86.28
2023-11-30T11:15:31.335Z,86.12
2023-11-30T11:17:34.225Z,86.21
2023-11-30T11:19:41.793Z,86.88
2023-11-30T11:21:45.222Z,86.91
2023-11-30T11:23:49.413Z,87.49
2023-11-30T11:25:58.404Z,86.79
2023-11-30T11:28:01.558Z,86.63
2023-11-30T11:30:08.604Z,87.24
2023-11-30T11:32:13.221Z,86.87
2023-11-30T11:34:17.242Z,86.31
2023-11-30T11:36:20.117Z,86.39
2023-11-30T11:38:23.022Z,86.10
2023-11-30T11:40:26.647Z,86.25
2023-11-30T11:42:29.442Z,85.99
2023-11-30T11:44:32.274Z,85.40
2023-11-30T11:46:35.110Z,85.56
2023-11-30T11:48:37.909Z,86.05
2023-11-30T11:50:43.310Z,86.17
2023-11-30T11:52:46.067Z,85.81
2023-11-30T11:55:02.872Z,85.81
2023-11-30T11:57:06.232Z,86.04
2023-11-30T11:59:09.016Z,85.75
2023-11-30T12:01:12.750Z,85.46
2023-11-30T12:03:15.653Z,85.43
2023-11-30T12:05:26.852Z,85.43
2023-11-30T12:07:30.029Z,86.21
2023-11-30T12:09:32.906Z,86.55
2023-11-30T12:11:35.748Z,86.69
2023-11-30T12:13:38.994Z,86.52
2023-11-30T12:15:43.050Z,86.73
2023-11-30T12:17:46.799Z,86.78
2023-11-30T12:19:49.613Z,86.43
2023-11-30T12:21:52.459Z,86.92
2023-11-30T12:23:56.622Z,86.61
2023-11-30T12:25:59.477Z,86.40
2023-11-30T12:28:02.381Z,86.30
2023-11-30T12:30:05.784Z,86.29
2023-11-30T12:32:08.690Z,86.52
2023-11-30T12:34:11.523Z,86.31
2023-11-30T12:36:15.380Z,86.89
2023-11-30T12:38:18.549Z,86.62
2023-11-30T12:40:21.339Z,87.00
2023-11-30T12:42:25.271Z,86.65
2023-11-30T12:44:28.250Z,86.44
2023-11-30T12:46:31.070Z,86.75
2023-11-30T12:48:34.176Z,86.85
2023-11-30T12:50:37.102Z,86.81
2023-11-30T12:52:39.869Z,86.67
2023-11-30T12:54:42.725Z,86.94
2023-11-30T12:56:45.583Z,87.07
2023-11-30T12:58:48.509Z,86.80
2023-11-30T13:00:51.374Z,87.10
2023-11-30T13:02:54.433Z,87.18
2023-11-30T13:04:57.897Z,87.51
2023-11-30T13:07:01.838Z,87.33
2023-11-30T13:09:05.114Z,87.83
2023-11-30T13:11:08.654Z,87.46
2023-11-30T13:13:11.599Z,87.46
2023-11-30T13:15:14.699Z,87.68
2023-11-30T13:17:18.264Z,87.54
2023-11-30T13:19:24.702Z,87.72
2023-11-30T13:21:28.978Z,87.67
2023-11-30T13:23:32.008Z,87.66
2023-11-30T13:25:34.844Z,87.55
2023-11-30T13:27:37.675Z,87.98
2023-11-30T13:29:40.493Z,87.73
2023-11-30T13:31:43.607Z,87.74
2023-11-30T13:33:46.600Z,87.80
2023-11-30T13:35:49.719Z,87.85
2023-11-30T13:37:52.608Z,87.79
2023-11-30T13:39:55.403Z,88.16
2023-11-30T13:42:00.876Z,87.66
2023-11-30T13:44:06.185Z,88.14
2023-11-30T13:46:14.146Z,87.78
2023-11-30T13:48:17.242Z,88.03
2023-11-30T13:50:30.245Z,88.15
2023-11-30T13:52:39.317Z,88.25
2023-11-30T13:54:42.143Z,87.64
2023-11-30T13:56:44.937Z,87.70
2023-11-30T13:58:47.681Z,87.63
2023-11-30T14:00:50.496Z,87.70
2023-11-30T14:02:53.397Z,87.45
2023-11-30T14:04:56.213Z,88.20
2023-11-30T14:06:59.423Z,87.57
2023-11-30T14:09:02.234Z,87.58
2023-11-30T14:11:10.548Z,87.47
2023-11-30T14:13:13.307Z,87.03
2023-11-30T14:15:16.585Z,86.96
2023-11-30T14:17:19.420Z,86.98
2023-11-30T14:19:22.413Z,87.30
2023-11-30T14:21:25.183Z,87.66
2023-11-30T14:23:28.418Z,88.01
2023-11-30T14:25:31.186Z,88.25
2023-11-30T14:27:34.187Z,87.61
2023-11-30T14:29:36.970Z,87.79
2023-11-30T14:31:39.785Z,87.92
2023-11-30T14:33:43.046Z,87.85
2023-11-30T14:35:45.782Z,87.92
2023-11-30T14:37:48.541Z,88.11
2023-11-30T14:39:51.609Z,87.93
2023-11-30T14:41:54.423Z,88.07
2023-11-30T14:43:57.543Z,88.39
2023-11-30T14:46:00.417Z,88.27
2023-11-30T14:48:07.118Z,88.33
2023-11-30T14:50:16.813Z,88.24
2023-11-30T14:52:19.767Z,88.16
2023-11-30T14:54:22.558Z,88.41
2023-11-30T14:56:26.700Z,88.87
2023-11-30T14:58:29.548Z,88.77
2023-11-30T15:00:37.933Z,88.54
2023-11-30T15:02:40.785Z,89.00
2023-11-30T15:04:43.548Z,88.83
2023-11-30T15:06:46.329Z,89.50
2023-11-30T15:08:49.088Z,89.32
2023-11-30T15:10:51.899Z,88.93
2023-11-30T15:12:55.573Z,88.95
2023-11-30T15:14:58.361Z,89.31
2023-11-30T15:17:01.151Z,88.88
2023-11-30T15:19:05.237Z,89.23
2023-11-30T15:21:08.757Z,89.00
2023-11-30T15:23:11.602Z,88.93
2023-11-30T15:25:18.972Z,88.96
2023-11-30T15:27:22.246Z,89.40
2023-11-30T15:29:25.359Z,88.79
2023-11-30T15:31:28.152Z,88.42
2023-11-30T15:33:30.954Z,88.20
2023-11-30T15:35:33.958Z,88.45
2023-11-30T15:37:36.922Z,88.42
2023-11-30T15:39:39.755Z,88.38
2023-11-30T15:41:47.567Z,88.59
2023-11-30T15:43:50.364Z,88.74
2023-11-30T15:45:53.339Z,89.23
2023-11-30T15:47:56.256Z,88.87
2023-11-30T15:49:59.091Z,89.39
2023-11-30T15:52:01.860Z,89.23
2023-11-30T15:54:04.849Z,88.88
2023-11-30T15:56:09.036Z,88.40
2023-11-30T15:58:12.200Z,88.63
2023-11-30T16:00:15.423Z,88.65
2023-11-30T16:02:18.341Z,88.22
2023-11-30T16:04:21.279Z,88.32
2023-11-30T16:06:24.814Z,88.38
2023-11-30T16:08:28.215Z,88.07
2023-11-30T16:10:30.966Z,87.88
2023-11-30T16:12:33.787Z,87.49
2023-11-30T16:14:36.530Z,87.83
2023-11-30T16:16:42.549Z,87.88
2023-11-30T16:18:45.349Z,87.95
2023-11-30T16:20:48.166Z,88.29
2023-11-30T16:22:51.100Z,88.59
2023-11-30T16:24:54.143Z,88.08
2023-11-30T16:26:57.824Z,88.57
2023-11-30T16:29:00.664Z,88.50
2023-11-30T16:31:04.600Z,88.18
2023-11-30T16:33:07.466Z,87.79
2023-11-30T16:35:10.282Z,88.06
2023-11-30T16:37:13.076Z,87.39
2023-11-30T16:39:16.262Z,87.67
2023-11-30T16:41:19.111Z,87.10
2023-11-30T16:43:22.253Z,87.46
2023-11-30T16:45:26.216Z,87.81
2023-11-30T16:47:30.447Z,87.96
2023-11-30T16:49:33.214Z,88.47
2023-11-30T16:51:41.599Z,88.43
2023-11-30T16:53:46.550Z,88.66
2023-11-30T16:55:49.415Z,89.07
2023-11-30T16:57:52.159Z,89.12
2023-11-30T16:59:54.985Z,88.72
2023-11-30T17:01:58.442Z,88.67
2023-11-30T17:04:03.791Z,88.90
2023-11-30T17:06:06.823Z,88.54
2023-11-30T17:08:09.618Z,88.95
2023-11-30T17:10:12.474Z,89.26
2023-11-30T17:12:16.069Z,89.22
2023-11-30T17:14:18.819Z,88.82
2023-11-30T17:16:23.364Z,89.07
2023-11-30T17:18:26.212Z,88.82
2023-11-30T17:20:29.114Z,88.49
2023-11-30T17:22:31.985Z,88.78
2023-11-30T17:24:34.787Z,88.92
2023-11-30T17:26:37.554Z,88.92
2023-11-30T17:28:40.366Z,89.45
2023-11-30T17:30:43.301Z,89.38
2023-11-30T17:32:46.195Z,89.45
2023-11-30T17:34:49.563Z,89.18
2023-11-30T17:36:53.399Z,89.39
2023-11-30T17:38:56.208Z,89.84
2023-11-30T17:40:58.992Z,89.69
2023-11-30T17:43:01.794Z,89.28
2023-11-30T17:45:06.297Z,89.33
2023-11-30T17:47:09.375Z,88.90
2023-11-30T17:49:12.633Z,89.91
2023-11-30T17:51:19.157Z,89.81
2023-11-30T17:53:22.399Z,88.97
2023-11-30T17:55:25.363Z,88.92
2023-11-30T17:57:28.820Z,89.17
2023-11-30T17:59:31.895Z,89.09
2023-11-30T18:01:34.829Z,89.34
2023-11-30T18:03:38.006Z,89.63
2023-11-30T18:05:41.149Z,89.66
2023-11-30T18:07:43.912Z,89.47
2023-11-30T18:09:47.074Z,89.40
2023-11-30T18:11:50.034Z,89.13
2023-11-30T18:13:52.800Z,88.63
2023-11-30T18:15:56.270Z,88.91
2023-11-30T18:18:00.224Z,89.12
2023-11-30T18:20:03.470Z,88.75
2023-11-30T18:22:06.704Z,88.53
2023-11-30T18:24:09.566Z,88.92
2023-11-30T18:26:12.354Z,89.06
2023-11-30T18:28:15.110Z,88.60
2023-11-30T18:30:17.863Z,88.71
2023-11-30T18:32:20.771Z,89.21
2023-11-30T18:34:24.227Z,88.99
2023-11-30T18:36:27.329Z,88.49
2023-11-30T18:38:37.049Z,88.66
2023-11-30T18:40:45.021Z,88.32
2023-11-30T18:42:51.180Z,88.66
2023-11-30T18:44:54.336Z,88.22
2023-11-30T18:46:57.634Z,88.00
2023-11-30T18:49:02.013Z,88.11
2023-11-30T18:51:07.262Z,88.08
2023-11-30T18:53:11.127Z,88.03
2023-11-30T18:55:14.828Z,88.10
2023-11-30T18:57:18.645Z,88.47
2023-11-30T18:59:22.972Z,88.08
2023-11-30T19:01:27.760Z,88.32
2023-11-30T19:03:31.212Z,87.87
2023-11-30T19:05:36.819Z,87.89
2023-11-30T19:07:42.536Z,88.03
2023-11-30T19:09:46.305Z,88.78
2023-11-30T19:11:50.522Z,89.23
2023-11-30T19:13:53.956Z,88.80
2023-11-30T19:15:57.380Z,89.27
2023-11-30T19:18:01.816Z,89.15
2023-11-30T19:20:07.630Z,88.92
2023-11-30T19:22:10.812Z,88.84
2023-11-30T19:24:16.266Z,88.30
2023-11-30T19:26:20.332Z,87.81
2023-11-30T19:28:23.593Z,88.34
2023-11-30T19:30:29.104Z,88.40
2023-11-30T19:32:32.417Z,88.40
2023-11-30T19:34:35.924Z,88.28
2023-11-30T19:36:40.791Z,88.24
2023-11-30T19:38:44.902Z,88.37
2023-11-30T19:40:48.609Z,88.54
2023-11-30T19:42:52.275Z,88.52
2023-11-30T19:44:55.991Z,88.74
2023-11-30T19:46:59.825Z,88.57
2023-11-30T19:49:03.774Z,88.45
2023-11-30T19:51:07.718Z,88.35
2023-11-30T19:53:11.261Z,88.23
2023-11-30T19:55:15.126Z,88.34
2023-11-30T19:57:19.542Z,88.09
2023-11-30T19:59:23.135Z,87.68
2023-11-30T20:01:26.748Z,87.72
2023-11-30T20:03:30.599Z,88.26
2023-11-30T20:05:34.428Z,88.28
2023-11-30T20:07:37.978Z,87.58
2023-11-30T20:09:42.087Z,88.11
2023-11-30T20:11:45.762Z,87.82
2023-11-30T20:13:49.880Z,87.74
2023-11-30T20:15:53.495Z,87.96
2023-11-30T20:17:57.179Z,87.58
2023-11-30T20:20:00.720Z,87.65
2023-11-30T20:22:04.250Z,87.88
2023-11-30T20:24:07.993Z,87.45
2023-11-30T20:26:11.540Z,87.63
2023-11-30T20:28:15.148Z,87.04
2023-11-30T20:30:18.621Z,87.39
2023-11-30T20:32:24.674Z,87.65
2023-11-30T20:34:29.327Z,87.28
2023-11-30T20:36:34.029Z,87.57
2023-11-30T20:38:40.594Z,87.75
2023-11-30T20:40:46.438Z,87.63
2023-11-30T20:42:50.684Z,87.80
2023-11-30T20:44:56.065Z,87.55
2023-11-30T20:46:59.402Z,87.96
2023-11-30T20:49:03.352Z,87.60
2023-11-30T20:51:06.570Z,87.35
2023-11-30T20:53:09.612Z,87.35
2023-11-30T20:55:14.041Z,87.80
2023-11-30T20:57:16.884Z,87.67
2023-11-30T20:59:22.779Z,88.00
2023-11-30T21:01:25.771Z,87.92
2023-11-30T21:03:28.759Z,87.81
2023-11-30T21:05:31.594Z,87.59
2023-11-30T21:07:34.348Z,88.00
2023-11-30T21:09:38.063Z,88.62
2023-11-30T21:11:40.839Z,87.73
2023-11-30T21:13:48.067Z,87.94
2023-11-30T21:16:05.805Z,87.46
2023-11-30T21:18:08.754Z,87.19
2023-11-30T21:20:11.647Z,87.25
2023-11-30T21:22:23.473Z,87.67
2023-11-30T21:24:26.990Z,87.19
2023-11-30T21:26:29.755Z,87.20
2023-11-30T21:28:32.634Z,87.55
2023-11-30T21:30:44.504Z,87.75
2023-11-30T21:32:47.273Z,87.25
2023-11-30T21:34:50.050Z,87.54
2023-11-30T21:36:52.871Z,88.04
2023-11-30T21:38:55.643Z,87.71
2023-11-30T21:40:59.501Z,87.75
2023-11-30T21:43:03.395Z,87.75
2023-11-30T21:45:06.567Z,87.57
2023-11-30T21:47:13.282Z,87.83
2023-11-30T21:49:19.867Z,87.08
2023-11-30T21:51:28.869Z,87.18
2023-11-30T21:53:36.031Z,87.30
2023-11-30T21:55:40.012Z,86.80
2023-11-30T21:57:42.798Z,86.58
2023-11-30T21:59:45.576Z,87.14
2023-11-30T22:01:48.499Z,86.63
2023-11-30T22:03:51.460Z,86.77
2023-11-30T22:05:54.251Z,86.77
2023-11-30T22:07:57.163Z,86.73
2023-11-30T22:09:59.965Z,86.68
2023-11-30T22:12:06.512Z,86.56
2023-11-30T22:14:09.283Z,86.78
2023-11-30T22:16:18.739Z,86.32
2023-11-30T22:18:26.621Z,86.72
2023-11-30T22:20:29.394Z,86.06
2023-11-30T22:22:32.140Z,86.67
2023-11-30T22:24:35.082Z,86.16
2023-11-30T22:26:37.864Z,86.25
2023-11-30T22:28:40.688Z,86.15
2023-11-30T22:30:43.620Z,86.42
2023-11-30T22:32:46.476Z,86.32
2023-11-30T22:34:49.266Z,86.25
2023-11-30T22:36:52.077Z,86.22
2023-11-30T22:38:55.431Z,85.63
2023-11-30T22:40:58.637Z,85.66
2023-11-30T22:43:01.445Z,85.34
2023-11-30T22:45:05.554Z,86.09
2023-11-30T22:47:08.297Z,86.24
2023-11-30T22:49:11.111Z,85.88
2023-11-30T22:51:14.046Z,85.95
2023-11-30T22:53:16.832Z,85.42
2023-11-30T22:55:19.871Z,85.95
2023-11-30T22:57:23.131Z,85.29
2023-11-30T22:59:25.963Z,85.14
2023-11-30T23:01:28.927Z,85.28
2023-11-30T23:03:31.995Z,85.39
2023-11-30T23:05:37.411Z,85.34
2023-11-30T23:07:41.662Z,85.72
2023-11-30T23:09:44.403Z,86.05
2023-11-30T23:11:47.162Z,85.78
2023-11-30T23:13:49.925Z,86.26
2023-11-30T23:15:53.124Z,85.90
2023-11-30T23:17:56.846Z,86.20
2023-11-30T23:19:59.587Z,85.52
2023-11-30T23:22:02.617Z,85.86
2023-11-30T23:24:05.608Z,86.08
2023-11-30T23:26:08.399Z,86.51
2023-11-30T23:28:13.497Z,86.54
2023-11-30T23:30:16.284Z,86.73
2023-11-30T23:32:19.020Z,86.62
2023-11-30T23:34:22.838Z,86.45
2023-11-30T23:36:27.330Z,86.66
2023-11-30T23:38:30.242Z,86.86
2023-11-30T23:40:33.019Z,86.63
2023-11-30T23:42:35.876Z,86.77
2023-11-30T23:44:38.985Z,86.45
2023-11-30T23:46:42.004Z,86.16
2023-11-30T23:48:45.900Z,86.40
2023-11-30T23:50:48.668Z,86.02
2023-11-30T23:52:51.492Z,86.27
2023-11-30T23:54:54.251Z,86.44
2023-11-30T23:56:57.033Z,86.21
2023-11-30T23:58:59.779Z,86.35
